createdAt,value
2024-05-09T00:02:22.842Z,59.00
2024-05-09T00:06:31.104Z,58.90
2024-05-09T00:10:38.708Z,58.80
2024-05-09T00:14:42.723Z,58.70
2024-05-09T00:18:45.864Z,58.60
2024-05-09T00:22:49.035Z,58.50
2024-05-09T00:26:52.140Z,58.40
2024-05-09T00:30:55.186Z,58.30
2024-05-09T00:34:58.241Z,58.20
2024-05-09T00:39:01.377Z,58.30
2024-05-09T00:43:04.516Z,58.30
2024-05-09T00:47:08.507Z,58.40
2024-05-09T00:51:11.688Z,58.40
2024-05-09T00:55:16.487Z,58.40
2024-05-09T00:59:20.246Z,58.50
2024-05-09T01:03:23.469Z,58.60
2024-05-09T01:07:26.627Z,58.70
2024-05-09T01:11:42.061Z,58.70
2024-05-09T01:15:45.225Z,58.80
2024-05-09T01:19:48.250Z,58.80
2024-05-09T01:23:52.589Z,58.90
2024-05-09T01:27:55.819Z,58.90
2024-05-09T01:32:05.835Z,58.90
2024-05-09T01:36:11.977Z,58.90
2024-05-09T01:40:33.298Z,59.00
2024-05-09T01:44:43.492Z,59.10
2024-05-09T01:48:47.096Z,59.20
2024-05-09T01:52:50.645Z,59.40
2024-05-09T01:56:53.600Z,59.50
2024-05-09T02:00:56.910Z,59.60
2024-05-09T02:05:00.050Z,59.70
2024-05-09T02:09:03.097Z,59.80
2024-05-09T02:13:07.869Z,59.80
2024-05-09T02:17:10.960Z,59.80
2024-05-09T02:21:14.063Z,59.70
2024-05-09T02:25:17.311Z,59.80
2024-05-09T02:29:21.427Z,59.70
2024-05-09T02:33:24.611Z,59.60
2024-05-09T02:37:28.089Z,59.70
2024-05-09T02:41:31.186Z,59.80
2024-05-09T02:45:34.723Z,59.80
2024-05-09T02:49:37.959Z,59.80
2024-05-09T02:53:41.011Z,59.90
2024-05-09T02:57:44.215Z,60.00
2024-05-09T03:01:47.332Z,60.20
2024-05-09T03:05:50.465Z,60.40
2024-05-09T03:09:53.810Z,60.50
2024-05-09T03:13:56.788Z,60.50
2024-05-09T03:18:01.173Z,60.60
2024-05-09T03:22:04.553Z,60.70
2024-05-09T03:26:16.124Z,60.70
2024-05-09T03:30:26.181Z,61.00
2024-05-09T03:34:41.696Z,61.00
2024-05-09T03:38:44.788Z,61.10
2024-05-09T03:42:47.715Z,61.10
2024-05-09T03:46:50.736Z,61.30
2024-05-09T03:50:53.978Z,61.30
2024-05-09T03:54:57.058Z,61.40
2024-05-09T03:59:00.162Z,61.50
2024-05-09T04:03:10.441Z,61.50
2024-05-09T04:07:15.880Z,61.60
2024-05-09T04:11:22.260Z,61.70
2024-05-09T04:15:27.912Z,61.90
2024-05-09T04:19:31.762Z,61.90
2024-05-09T04:23:34.885Z,62.00
2024-05-09T04:27:38.088Z,62.00
2024-05-09T04:31:42.058Z,62.10
2024-05-09T04:35:46.578Z,62.10
2024-05-09T04:39:51.709Z,62.10
2024-05-09T04:43:55.004Z,62.20
2024-05-09T04:47:58.497Z,62.20
2024-05-09T04:52:03.282Z,62.20
2024-05-09T04:56:07.371Z,62.20
2024-05-09T05:00:14.785Z,62.20
2024-05-09T05:04:25.290Z,62.20
2024-05-09T05:08:32.646Z,62.20
2024-05-09T05:12:54.998Z,62.20
2024-05-09T05:16:58.319Z,62.20
2024-05-09T05:21:01.877Z,62.20
2024-05-09T05:25:05.238Z,62.30
2024-05-09T05:29:08.304Z,62.20
2024-05-09T05:33:14.723Z,62.20
2024-05-09T05:37:18.310Z,62.20
2024-05-09T05:41:21.474Z,61.90
2024-05-09T05:45:24.628Z,61.90
2024-05-09T05:49:27.771Z,61.80
2024-05-09T05:53:30.923Z,61.70
2024-05-09T05:57:34.249Z,61.50
2024-05-09T06:01:37.251Z,61.60
2024-05-09T06:05:40.854Z,61.50
2024-05-09T06:09:46.053Z,61.40
2024-05-09T06:13:50.407Z,61.50
2024-05-09T06:17:53.817Z,61.50
2024-05-09T06:21:56.991Z,61.60
2024-05-09T06:25:59.950Z,61.40
2024-05-09T06:30:03.659Z,61.00
2024-05-09T06:34:06.825Z,60.80
2024-05-09T06:38:10.621Z,60.80
2024-05-09T06:42:13.856Z,60.90
2024-05-09T06:46:17.562Z,60.50
2024-05-09T06:50:24.260Z,60.20
2024-05-09T06:54:31.336Z,59.90
2024-05-09T06:58:35.803Z,59.70
2024-05-09T07:02:39.010Z,59.70
2024-05-09T07:06:42.141Z,59.50
2024-05-09T07:10:45.333Z,59.20
2024-05-09T07:14:48.451Z,59.00
2024-05-09T07:18:55.197Z,58.60
2024-05-09T07:22:58.232Z,58.40
2024-05-09T07:27:01.264Z,57.90
2024-05-09T07:31:04.345Z,57.60
2024-05-09T07:35:07.894Z,57.40
2024-05-09T07:39:11.264Z,57.30
2024-05-09T07:43:15.319Z,56.80
2024-05-09T07:48:29.026Z,56.90
2024-05-09T07:55:48.220Z,56.90
2024-05-09T07:59:51.267Z,56.60
2024-05-09T08:03:54.933Z,56.60
2024-05-09T08:07:58.126Z,56.00
2024-05-09T08:12:01.101Z,55.60
2024-05-09T08:16:04.342Z,55.10
2024-05-09T08:20:08.637Z,55.00
2024-05-09T08:24:13.168Z,54.70
2024-05-09T08:28:16.474Z,54.50
2024-05-09T08:32:19.638Z,54.00
2024-05-09T08:36:22.637Z,54.30
2024-05-09T08:40:33.379Z,53.60
2024-05-09T08:44:38.980Z,53.40
2024-05-09T08:48:44.279Z,53.30
2024-05-09T08:52:47.774Z,53.30
2024-05-09T08:56:52.165Z,52.80
2024-05-09T09:00:56.774Z,52.50
2024-05-09T09:05:10.823Z,52.50
2024-05-09T09:09:14.605Z,52.30
2024-05-09T09:13:19.009Z,52.10
2024-05-09T09:17:22.164Z,51.80
2024-05-09T09:21:25.207Z,51.80
2024-05-09T09:25:28.135Z,52.20
2024-05-09T09:29:32.036Z,51.60
2024-05-09T09:33:36.292Z,51.00
2024-05-09T09:37:39.570Z,51.00
2024-05-09T09:41:46.642Z,50.70
2024-05-09T09:45:55.536Z,50.80
2024-05-09T09:49:59.580Z,50.10
2024-05-09T09:54:03.926Z,50.30
2024-05-09T09:58:10.849Z,49.70
2024-05-09T10:02:15.369Z,49.60
2024-05-09T10:06:19.362Z,49.20
2024-05-09T10:10:32.136Z,49.00
2024-05-09T10:14:54.112Z,48.80
2024-05-09T10:18:57.282Z,48.70
2024-05-09T10:23:00.298Z,49.10
2024-05-09T10:27:04.622Z,48.70
2024-05-09T10:31:15.332Z,48.50
2024-05-09T10:35:19.660Z,48.30
2024-05-09T10:39:22.871Z,49.00
2024-05-09T10:43:26.561Z,49.00
2024-05-09T10:47:29.943Z,48.60
2024-05-09T10:51:33.026Z,48.00
2024-05-09T10:55:36.031Z,48.50
2024-05-09T10:59:39.803Z,48.30
2024-05-09T11:03:50.023Z,47.90
2024-05-09T11:07:53.268Z,47.70
2024-05-09T11:11:56.359Z,47.50
2024-05-09T11:16:00.456Z,47.70
2024-05-09T11:20:08.054Z,47.90
2024-05-09T11:24:13.879Z,48.30
2024-05-09T11:28:21.284Z,47.90
2024-05-09T11:32:31.361Z,47.30
2024-05-09T11:36:34.393Z,47.10
2024-05-09T11:40:38.798Z,47.30
2024-05-09T11:44:41.689Z,47.40
2024-05-09T11:48:45.285Z,47.70
2024-05-09T11:52:48.272Z,47.10
2024-05-09T11:56:51.792Z,47.60
2024-05-09T12:00:54.849Z,46.90
2024-05-09T12:04:57.905Z,47.20
2024-05-09T12:09:01.040Z,47.00
2024-05-09T12:13:05.957Z,47.10
2024-05-09T12:17:10.367Z,46.90
2024-05-09T12:21:17.048Z,46.80
2024-05-09T12:25:20.091Z,47.00
2024-05-09T12:29:23.380Z,47.10
2024-05-09T12:33:26.441Z,46.80
2024-05-09T12:37:29.591Z,47.00
2024-05-09T12:41:32.669Z,47.00
2024-05-09T12:45:35.870Z,47.10
2024-05-09T12:49:39.166Z,47.20
2024-05-09T12:53:42.187Z,47.30
2024-05-09T12:57:45.326Z,46.40
2024-05-09T13:01:48.443Z,46.40
2024-05-09T13:05:52.231Z,46.40
2024-05-09T13:09:55.315Z,46.00
2024-05-09T13:13:58.333Z,46.20
2024-05-09T13:18:03.222Z,46.10
2024-05-09T13:22:09.459Z,45.80
2024-05-09T13:26:12.619Z,46.00
2024-05-09T13:30:25.409Z,46.10
2024-05-09T13:34:33.280Z,45.70
2024-05-09T13:38:36.271Z,46.20
2024-05-09T13:42:40.123Z,45.70
2024-05-09T13:46:43.319Z,45.60
2024-05-09T13:50:47.324Z,45.20
2024-05-09T13:54:50.430Z,45.30
2024-05-09T13:58:54.960Z,45.30
2024-05-09T14:02:58.751Z,44.80
2024-05-09T14:07:02.014Z,44.90
2024-05-09T14:11:05.347Z,44.40
2024-05-09T14:15:08.510Z,44.80
2024-05-09T14:19:11.623Z,44.60
2024-05-09T14:23:17.573Z,44.60
2024-05-09T14:27:20.758Z,44.30
2024-05-09T14:31:23.850Z,44.30
2024-05-09T14:35:26.920Z,43.40
2024-05-09T14:39:29.987Z,42.90
2024-05-09T14:43:33.172Z,43.00
2024-05-09T14:47:36.764Z,42.90
2024-05-09T14:51:41.077Z,42.80
2024-05-09T14:55:44.358Z,43.00
2024-05-09T14:59:47.589Z,43.00
2024-05-09T15:03:51.052Z,42.80
2024-05-09T15:07:54.249Z,42.80
2024-05-09T15:12:09.710Z,42.60
2024-05-09T15:16:12.972Z,42.60
2024-05-09T15:20:20.232Z,42.40
2024-05-09T15:24:26.705Z,42.10
2024-05-09T15:28:30.314Z,42.30
2024-05-09T15:32:33.681Z,42.30
2024-05-09T15:36:37.790Z,41.90
2024-05-09T15:40:41.698Z,41.50
2024-05-09T15:44:45.438Z,41.00
2024-05-09T15:48:48.751Z,40.80
2024-05-09T15:52:51.955Z,40.50
2024-05-09T15:56:56.025Z,40.40
2024-05-09T16:00:59.328Z,40.60
2024-05-09T16:05:02.495Z,40.40
2024-05-09T16:09:06.624Z,40.40
2024-05-09T16:13:09.906Z,40.00
2024-05-09T16:17:16.413Z,39.70
2024-05-09T16:21:19.558Z,38.50
2024-05-09T16:25:22.690Z,37.90
2024-05-09T16:29:25.811Z,37.60
2024-05-09T16:33:29.305Z,37.20
2024-05-09T16:37:32.621Z,36.80
2024-05-09T16:41:36.272Z,36.70
2024-05-09T16:45:44.188Z,37.50
2024-05-09T16:49:47.408Z,36.80
2024-05-09T16:53:50.373Z,36.20
2024-05-09T16:57:53.792Z,36.10
2024-05-09T17:01:56.972Z,36.30
2024-05-09T17:06:03.489Z,36.60
2024-05-09T17:10:10.049Z,36.60
2024-05-09T17:14:15.246Z,37.60
2024-05-09T17:18:18.388Z,37.10
2024-05-09T17:22:22.368Z,37.30
2024-05-09T17:26:32.589Z,37.40
2024-05-09T17:30:38.604Z,37.70
2024-05-09T17:34:43.395Z,37.60
2024-05-09T17:38:47.111Z,38.10
2024-05-09T17:42:50.142Z,38.80
2024-05-09T17:46:53.182Z,39.60
2024-05-09T17:50:56.242Z,40.20
2024-05-09T17:54:59.301Z,40.70
2024-05-09T17:59:02.374Z,41.10
2024-05-09T18:03:06.361Z,41.50
2024-05-09T18:07:09.643Z,41.80
2024-05-09T18:11:12.719Z,42.00
2024-05-09T18:15:18.184Z,42.40
2024-05-09T18:19:21.241Z,42.80
2024-05-09T18:23:24.389Z,42.90
2024-05-09T18:27:27.543Z,43.30
2024-05-09T18:31:30.618Z,43.40
2024-05-09T18:35:33.685Z,43.60
2024-05-09T18:39:36.712Z,43.80
2024-05-09T18:43:45.395Z,43.90
2024-05-09T18:47:51.738Z,44.10
2024-05-09T18:51:54.740Z,44.30
2024-05-09T18:55:58.246Z,44.50
2024-05-09T19:00:01.299Z,44.60
2024-05-09T19:04:04.635Z,44.80
2024-05-09T19:08:08.241Z,44.90
2024-05-09T19:12:11.340Z,45.00
2024-05-09T19:16:14.271Z,45.10
2024-05-09T19:20:25.246Z,45.10
2024-05-09T19:24:34.407Z,45.20
2024-05-09T19:28:37.357Z,45.20
2024-05-09T19:32:41.477Z,45.20
2024-05-09T19:36:44.577Z,45.10
2024-05-09T19:40:47.664Z,45.10
2024-05-09T19:44:50.732Z,45.10
2024-05-09T19:48:54.139Z,45.10
2024-05-09T19:52:57.376Z,45.10
2024-05-09T19:57:00.425Z,45.20
2024-05-09T20:01:03.585Z,45.20
2024-05-09T20:05:07.308Z,45.30
2024-05-09T20:09:10.566Z,45.20
2024-05-09T20:13:13.921Z,45.30
2024-05-09T20:17:17.534Z,45.40
2024-05-09T20:21:20.563Z,45.50
2024-05-09T20:25:23.501Z,45.60
2024-05-09T20:29:26.473Z,45.80
2024-05-09T20:33:29.696Z,45.80
2024-05-09T20:37:32.571Z,45.90
2024-05-09T20:41:37.070Z,46.00
2024-05-09T20:45:40.767Z,45.90
2024-05-09T20:49:45.986Z,46.00
2024-05-09T20:53:49.183Z,46.00
2024-05-09T20:57:52.263Z,46.10
2024-05-09T21:01:56.414Z,46.20
2024-05-09T21:05:59.353Z,46.30
2024-05-09T21:10:04.659Z,46.30
2024-05-09T21:14:09.434Z,46.50
2024-05-09T21:18:12.516Z,46.60
2024-05-09T21:22:15.582Z,46.60
2024-05-09T21:26:19.716Z,46.70
2024-05-09T21:30:32.490Z,46.80
2024-05-09T21:34:43.440Z,46.80
2024-05-09T21:38:46.402Z,46.90
2024-05-09T21:42:49.670Z,47.10
2024-05-09T21:46:52.568Z,47.20
2024-05-09T21:50:55.507Z,47.30
2024-05-09T21:54:58.440Z,47.40
2024-05-09T21:59:01.725Z,47.60
2024-05-09T22:03:09.306Z,47.60
2024-05-09T22:07:13.472Z,47.70
2024-05-09T22:11:16.899Z,47.80
2024-05-09T22:15:20.610Z,48.00
2024-05-09T22:19:23.624Z,48.20
2024-05-09T22:23:26.521Z,48.20
2024-05-09T22:27:29.374Z,48.30
2024-05-09T22:31:32.280Z,48.50
2024-05-09T22:35:35.321Z,48.60
2024-05-09T22:39:38.287Z,48.70
2024-05-09T22:43:41.180Z,48.80
2024-05-09T22:47:44.163Z,49.00
2024-05-09T22:51:47.250Z,49.10
2024-05-09T22:55:50.130Z,49.20
2024-05-09T22:59:53.123Z,49.40
2024-05-09T23:03:56.254Z,49.50
2024-05-09T23:08:00.528Z,49.60
2024-05-09T23:12:03.649Z,49.60
2024-05-09T23:16:06.889Z,49.80
2024-05-09T23:20:11.638Z,50.00
2024-05-09T23:24:14.788Z,50.00
2024-05-09T23:28:18.034Z,50.10
2024-05-09T23:32:21.401Z,50.20
2024-05-09T23:36:26.686Z,50.30
2024-05-09T23:40:38.154Z,50.40
2024-05-09T23:44:43.728Z,50.60
2024-05-09T23:48:46.755Z,50.60
2024-05-09T23:52:49.730Z,50.70
2024-05-09T23:56:52.712Z,50.80
